Svitzer Stanlow — MLNF7 — position and weather

sailwx.info

Track history (hours):
 
Tides and Currents Weather Stations Pressure Air Temp Water Temp Dewpoint Dewpoint Depression Visibility Wind Speed Wind Dir Waves Ship Positions

Svitzer Stanlow

Last reported at 2015-Mar-02 21:24 UTC. Time now 2015-Mar-03 12:47 UTC.
Position N 53°23' W 003°00'.

Length 39 m.

Type: Tug. MMSI: 235010620.

Date/timePositionNaut miles runAvg speedWind from/ knotsBaromVisibWave heightAir tempDewpointWater temp
2015-Mar-02 21:24N 53°23' W 003°00'6 7.3
2015-Mar-02 20:33N 53°29' W 003°05'9 8.5
2015-Mar-02 19:33N 53°32' W 003°18'9 8.8
2015-Mar-02 18:33N 53°29' W 003°04'6 0.3
2015-Mar-01 23:06N 53°23' W 003°00'4 6.5
2015-Mar-01 22:29N 53°27' W 003°01'1 0.9
2015-Mar-01 21:27N 53°26' W 003°01'2 2.1
2015-Mar-01 20:33N 53°28' W 003°03'5 0.2
2015-Feb-28 20:17N 53°23' W 003°00'0 0.5
2015-Feb-28 19:29N 53°23' W 003°00'6 6.5
2015-Feb-28 18:33N 53°29' W 003°05'5 4.4
2015-Feb-28 17:29N 53°32' W 003°11'8 8.4
2015-Feb-28 16:31N 53°26' W 003°01'1 1.0
2015-Feb-28 15:32N 53°25' W 003°00'0 0.0
2015-Feb-28 14:32N 53°25' W 003°00'0 0.0
2015-Feb-28 13:32N 53°25' W 003°00'0 0.0
2015-Feb-28 12:32N 53°25' W 003°00'0 0.0
2015-Feb-28 11:32N 53°25' W 003°00'0 0.0
2015-Feb-28 10:32N 53°25' W 003°00'0 0.0
2015-Feb-28 09:25N 53°25' W 003°00'0 0.0
2015-Feb-28 08:31N 53°25' W 003°00'0 0.0
2015-Feb-28 07:25N 53°25' W 003°00'0 0.0
2015-Feb-28 06:31N 53°25' W 003°00'0 0.0
2015-Feb-28 05:31N 53°25' W 003°00'0 0.0
2015-Feb-28 04:31N 53°25' W 003°00'0 0.0
2015-Feb-28 03:31N 53°25' W 003°00'0 0.0
2015-Feb-28 02:31N 53°25' W 003°00'0 0.0
2015-Feb-28 01:31N 53°25' W 003°00'0 0.0
2015-Feb-28 00:31N 53°25' W 003°00'0 0.0
2015-Feb-27 23:31N 53°25' W 003°00'0 0.0
2015-Feb-27 22:31N 53°25' W 003°00'0 0.0
2015-Feb-27 21:31N 53°25' W 003°00'0 0.0
2015-Feb-27 20:31N 53°25' W 003°00'0 0.0
2015-Feb-27 19:25N 53°25' W 003°00'0 0.0
2015-Feb-27 18:31N 53°25' W 003°00'0 0.0
2015-Feb-27 17:31N 53°25' W 003°00'0 0.0
2015-Feb-27 16:31N 53°25' W 003°00'2 1.6
2015-Feb-27 15:29N 53°27' W 003°01'0 0.3
2015-Feb-27 14:31N 53°27' W 003°01'2 1.9
2015-Feb-27 13:29N 53°25' W 003°00'0 0.0
2015-Feb-27 12:29N 53°25' W 003°00'0 0.0
2015-Feb-27 11:29N 53°25' W 003°00'0 0.0
2015-Feb-27 10:23N 53°25' W 003°00'0 0.0
2015-Feb-27 09:23N 53°25' W 003°00'0 0.0
2015-Feb-27 08:29N 53°25' W 003°00'0 0.0
2015-Feb-27 07:29N 53°25' W 003°00'0 0.0
2015-Feb-27 06:29N 53°25' W 003°00'0 0.0
2015-Feb-27 05:29N 53°25' W 003°00'0 0.0
2015-Feb-27 04:29N 53°25' W 003°00'0 0.0
2015-Feb-27 03:29N 53°25' W 003°00'0 0.0
2015-Feb-27 02:29N 53°25' W 003°00'2 1.7
2015-Feb-27 01:33N 53°27' W 003°01'2 1.4
2015-Feb-27 00:28N 53°25' W 003°00'0 0.0
2015-Feb-26 23:28N 53°25' W 003°00'0 0.0
2015-Feb-26 22:28N 53°25' W 003°00'0 0.0
2015-Feb-26 21:34N 53°25' W 003°00'0 0.0
2015-Feb-26 20:34N 53°25' W 003°00'0 0.0
2015-Feb-26 19:33N 53°25' W 003°00'0 0.0
2015-Feb-26 18:27N 53°25' W 003°00'0 0.0
2015-Feb-26 17:21N 53°25' W 003°00'0 0.0
2015-Feb-26 16:33N 53°25' W 003°00'0 0.0
2015-Feb-26 15:33N 53°25' W 003°00'0 0.0
2015-Feb-26 14:33N 53°25' W 003°00'0 0.0
2015-Feb-26 13:33N 53°25' W 003°00'0 0.0
2015-Feb-26 12:27N 53°25' W 003°00'0 0.0
2015-Feb-26 11:21N 53°25' W 003°00'0 0.0
2015-Feb-26 10:27N 53°25' W 003°00'0 0.0
2015-Feb-26 09:27N 53°25' W 003°00'0 0.0
2015-Feb-26 08:33N 53°25' W 003°00'0 0.0
2015-Feb-26 07:33N 53°25' W 003°00'0 0.0
2015-Feb-26 06:33N 53°25' W 003°00'0 0.0
2015-Feb-26 05:33N 53°25' W 003°00'0 0.0
2015-Feb-26 04:33N 53°25' W 003°00'0 0.0
2015-Feb-26 03:33N 53°25' W 003°00'0 0.0
2015-Feb-26 02:33N 53°25' W 003°00'0 0.0
2015-Feb-26 01:33N 53°25' W 003°00'0 0.0
2015-Feb-26 00:33N 53°25' W 003°00'0 0.0
2015-Feb-25 23:33N 53°25' W 003°00'0 0.0
2015-Feb-25 22:33N 53°25' W 003°00'0 0.0
2015-Feb-25 21:27N 53°25' W 003°00'0 0.0
2015-Feb-25 20:33N 53°25' W 003°00'0 0.0
2015-Feb-25 19:33N 53°25' W 003°00'0 0.0
2015-Feb-25 18:33N 53°25' W 003°00'0 0.0
2015-Feb-25 17:33N 53°25' W 003°00'0 0.0
2015-Feb-25 16:33N 53°25' W 003°00'0 0.0
2015-Feb-25 15:33N 53°25' W 003°00'0 0.0
2015-Feb-25 14:33N 53°25' W 003°00'1 1.0
2015-Feb-25 13:33N 53°26' W 003°01'1 0.8
2015-Feb-25 12:33N 53°26' W 003°01'3 1.4
2015-Feb-25 10:31N 53°23' W 003°00'0 0.0
2015-Feb-25 09:25N 53°23' W 003°00'0 0.0
2015-Feb-25 08:31N 53°23' W 003°00'0 0.0
2015-Feb-25 07:31N 53°23' W 003°00'0 0.0
2015-Feb-25 06:31N 53°23' W 003°00'0 0.0
2015-Feb-25 05:31N 53°23' W 003°00'0 0.0
2015-Feb-25 04:31N 53°23' W 003°00'0 0.0
2015-Feb-25 03:13N 53°23' W 003°00'0 0.0
2015-Feb-25 02:31N 53°23' W 003°00'0 0.0
2015-Feb-25 01:31N 53°23' W 003°00'0 0.0
2015-Feb-25 00:31N 53°23' W 003°00'0 0.0
2015-Feb-24 23:25N 53°23' W 003°00'0 0.0
2015-Feb-24 22:31N 53°23' W 003°00'0 0.0
2015-Feb-24 21:31N 53°23' W 003°00'0 0.0
2015-Feb-24 20:31N 53°23' W 003°00'0 0.0
2015-Feb-24 19:31N 53°23' W 003°00'0 0.0
2015-Feb-24 18:31N 53°23' W 003°00'0 0.0
2015-Feb-24 17:31N 53°23' W 003°00'0 0.0
2015-Feb-24 16:30N 53°23' W 003°00'0 0.0
2015-Feb-24 15:24N 53°23' W 003°00'0 0.0
2015-Feb-24 14:24N 53°23' W 003°00'1 0.0
2015-Feb-23 14:06N 53°23' W 003°00'3 5.1
2015-Feb-23 13:33N 53°26' W 003°01'9 8.1
2015-Feb-23 12:29N 53°31' W 003°13'3 2.9
2015-Feb-23 11:33N 53°32' W 003°08'9 8.7
2015-Feb-23 10:33N 53°24' W 003°00'1 0.2
2015-Feb-23 02:29N 53°23' W 003°00'1 1.0
2015-Feb-23 01:34N 53°24' W 003°00'8 8.3
2015-Feb-23 00:33N 53°31' W 003°07'4 4.3
2015-Feb-22 23:33N 53°31' W 003°14'8 7.9
2015-Feb-22 22:33N 53°27' W 003°02'5 4.5
2015-Feb-22 21:28N 53°23' W 003°00'0 0.0
2015-Feb-22 20:28N 53°23' W 003°00'0 0.0
2015-Feb-22 19:28N 53°23' W 003°00'0 0.0
2015-Feb-22 18:28N 53°23' W 003°00'0 0.0
2015-Feb-22 17:28N 53°23' W 003°00'0 0.0
2015-Feb-22 16:28N 53°23' W 003°00'0 0.0
2015-Feb-22 15:22N 53°23' W 003°00'0 0.0
2015-Feb-22 14:28N 53°23' W 003°00'0 0.0
2015-Feb-22 13:22N 53°23' W 003°00'0 0.0
2015-Feb-22 12:28N 53°23' W 003°00'0 0.0
2015-Feb-22 11:28N 53°23' W 003°00'0 0.0
2015-Feb-22 10:28N 53°23' W 003°00'0 0.0
2015-Feb-22 09:28N 53°23' W 003°00'0 0.0
2015-Feb-22 08:28N 53°23' W 003°00'0 0.0
2015-Feb-22 07:28N 53°23' W 003°00'0 0.0
2015-Feb-22 06:28N 53°23' W 003°00'0 0.0
2015-Feb-22 05:28N 53°23' W 003°00'0 0.0
2015-Feb-22 04:16N 53°23' W 003°00'0 0.0
2015-Feb-22 03:34N 53°23' W 003°00'0 0.0
2015-Feb-22 02:33N 53°23' W 003°00'0 0.0
2015-Feb-22 01:33N 53°23' W 003°00'0 0.0
2015-Feb-22 00:33N 53°23' W 003°00'0 0.0
2015-Feb-21 23:33N 53°23' W 003°00'4 4.1
2015-Feb-21 22:33N 53°27' W 003°01'3 3.0
2015-Feb-21 21:33N 53°24' W 003°00'1 1.0
2015-Feb-21 20:29N 53°23' W 003°00'0 0.0
2015-Feb-21 19:29N 53°23' W 003°00'0 0.0
2015-Feb-21 18:29N 53°23' W 003°00'0 0.0
2015-Feb-21 17:29N 53°23' W 003°00'0 0.0
2015-Feb-21 16:29N 53°23' W 003°00'0 0.0
2015-Feb-21 15:29N 53°23' W 003°00'0 0.0
2015-Feb-21 14:29N 53°23' W 003°00'0 0.0
2015-Feb-21 13:17N 53°23' W 003°00'0 0.0
2015-Feb-21 12:29N 53°23' W 003°00'  
Track history (hours):
 
Tides and Currents Weather Stations Pressure Air Temp Water Temp Dewpoint Dewpoint Depression Visibility Wind Speed Wind Dir Waves Ship Positions

Svitzer Stanlow

Last reported at 2015-Mar-02 21:24 UTC. Time now 2015-Mar-03 12:47 UTC.
Position N 53°23' W 003°00'.

Length 39 m.

Type: Tug. MMSI: 235010620.

Date/timePositionNaut miles runAvg speedWind from/ knotsBaromVisibWave heightAir tempDewpointWater temp
2015-Mar-02 21:24N 53°23' W 003°00'6 7.3
2015-Mar-02 20:33N 53°29' W 003°05'9 8.5
2015-Mar-02 19:33N 53°32' W 003°18'9 8.8
2015-Mar-02 18:33N 53°29' W 003°04'6 0.3
2015-Mar-01 23:06N 53°23' W 003°00'4 6.5
2015-Mar-01 22:29N 53°27' W 003°01'1 0.9
2015-Mar-01 21:27N 53°26' W 003°01'2 2.1
2015-Mar-01 20:33N 53°28' W 003°03'5 0.2
2015-Feb-28 20:17N 53°23' W 003°00'0 0.5
2015-Feb-28 19:29N 53°23' W 003°00'6 6.5
2015-Feb-28 18:33N 53°29' W 003°05'5 4.4
2015-Feb-28 17:29N 53°32' W 003°11'8 8.4
2015-Feb-28 16:31N 53°26' W 003°01'1 1.0
2015-Feb-28 15:32N 53°25' W 003°00'0 0.0
2015-Feb-28 14:32N 53°25' W 003°00'0 0.0
2015-Feb-28 13:32N 53°25' W 003°00'0 0.0
2015-Feb-28 12:32N 53°25' W 003°00'0 0.0
2015-Feb-28 11:32N 53°25' W 003°00'0 0.0
2015-Feb-28 10:32N 53°25' W 003°00'0 0.0
2015-Feb-28 09:25N 53°25' W 003°00'0 0.0
2015-Feb-28 08:31N 53°25' W 003°00'0 0.0
2015-Feb-28 07:25N 53°25' W 003°00'0 0.0
2015-Feb-28 06:31N 53°25' W 003°00'0 0.0
2015-Feb-28 05:31N 53°25' W 003°00'0 0.0
2015-Feb-28 04:31N 53°25' W 003°00'0 0.0
2015-Feb-28 03:31N 53°25' W 003°00'0 0.0
2015-Feb-28 02:31N 53°25' W 003°00'0 0.0
2015-Feb-28 01:31N 53°25' W 003°00'0 0.0
2015-Feb-28 00:31N 53°25' W 003°00'0 0.0
2015-Feb-27 23:31N 53°25' W 003°00'0 0.0
2015-Feb-27 22:31N 53°25' W 003°00'0 0.0
2015-Feb-27 21:31N 53°25' W 003°00'0 0.0
2015-Feb-27 20:31N 53°25' W 003°00'0 0.0
2015-Feb-27 19:25N 53°25' W 003°00'0 0.0
2015-Feb-27 18:31N 53°25' W 003°00'0 0.0
2015-Feb-27 17:31N 53°25' W 003°00'0 0.0
2015-Feb-27 16:31N 53°25' W 003°00'2 1.6
2015-Feb-27 15:29N 53°27' W 003°01'0 0.3
2015-Feb-27 14:31N 53°27' W 003°01'2 1.9
2015-Feb-27 13:29N 53°25' W 003°00'0 0.0
2015-Feb-27 12:29N 53°25' W 003°00'0 0.0
2015-Feb-27 11:29N 53°25' W 003°00'0 0.0
2015-Feb-27 10:23N 53°25' W 003°00'0 0.0
2015-Feb-27 09:23N 53°25' W 003°00'0 0.0
2015-Feb-27 08:29N 53°25' W 003°00'0 0.0
2015-Feb-27 07:29N 53°25' W 003°00'0 0.0
2015-Feb-27 06:29N 53°25' W 003°00'0 0.0
2015-Feb-27 05:29N 53°25' W 003°00'0 0.0
2015-Feb-27 04:29N 53°25' W 003°00'0 0.0
2015-Feb-27 03:29N 53°25' W 003°00'0 0.0
2015-Feb-27 02:29N 53°25' W 003°00'2 1.7
2015-Feb-27 01:33N 53°27' W 003°01'2 1.4
2015-Feb-27 00:28N 53°25' W 003°00'0 0.0
2015-Feb-26 23:28N 53°25' W 003°00'0 0.0
2015-Feb-26 22:28N 53°25' W 003°00'0 0.0
2015-Feb-26 21:34N 53°25' W 003°00'0 0.0
2015-Feb-26 20:34N 53°25' W 003°00'0 0.0
2015-Feb-26 19:33N 53°25' W 003°00'0 0.0
2015-Feb-26 18:27N 53°25' W 003°00'0 0.0
2015-Feb-26 17:21N 53°25' W 003°00'0 0.0
2015-Feb-26 16:33N 53°25' W 003°00'0 0.0
2015-Feb-26 15:33N 53°25' W 003°00'0 0.0
2015-Feb-26 14:33N 53°25' W 003°00'0 0.0
2015-Feb-26 13:33N 53°25' W 003°00'0 0.0
2015-Feb-26 12:27N 53°25' W 003°00'0 0.0
2015-Feb-26 11:21N 53°25' W 003°00'0 0.0
2015-Feb-26 10:27N 53°25' W 003°00'0 0.0
2015-Feb-26 09:27N 53°25' W 003°00'0 0.0
2015-Feb-26 08:33N 53°25' W 003°00'0 0.0
2015-Feb-26 07:33N 53°25' W 003°00'0 0.0
2015-Feb-26 06:33N 53°25' W 003°00'0 0.0
2015-Feb-26 05:33N 53°25' W 003°00'0 0.0
2015-Feb-26 04:33N 53°25' W 003°00'0 0.0
2015-Feb-26 03:33N 53°25' W 003°00'0 0.0
2015-Feb-26 02:33N 53°25' W 003°00'0 0.0
2015-Feb-26 01:33N 53°25' W 003°00'0 0.0
2015-Feb-26 00:33N 53°25' W 003°00'0 0.0
2015-Feb-25 23:33N 53°25' W 003°00'0 0.0
2015-Feb-25 22:33N 53°25' W 003°00'0 0.0
2015-Feb-25 21:27N 53°25' W 003°00'0 0.0
2015-Feb-25 20:33N 53°25' W 003°00'0 0.0
2015-Feb-25 19:33N 53°25' W 003°00'0 0.0
2015-Feb-25 18:33N 53°25' W 003°00'0 0.0
2015-Feb-25 17:33N 53°25' W 003°00'0 0.0
2015-Feb-25 16:33N 53°25' W 003°00'0 0.0
2015-Feb-25 15:33N 53°25' W 003°00'0 0.0
2015-Feb-25 14:33N 53°25' W 003°00'1 1.0
2015-Feb-25 13:33N 53°26' W 003°01'1 0.8
2015-Feb-25 12:33N 53°26' W 003°01'3 1.4
2015-Feb-25 10:31N 53°23' W 003°00'0 0.0
2015-Feb-25 09:25N 53°23' W 003°00'0 0.0
2015-Feb-25 08:31N 53°23' W 003°00'0 0.0
2015-Feb-25 07:31N 53°23' W 003°00'0 0.0
2015-Feb-25 06:31N 53°23' W 003°00'0 0.0
2015-Feb-25 05:31N 53°23' W 003°00'0 0.0
2015-Feb-25 04:31N 53°23' W 003°00'0 0.0
2015-Feb-25 03:13N 53°23' W 003°00'0 0.0
2015-Feb-25 02:31N 53°23' W 003°00'0 0.0
2015-Feb-25 01:31N 53°23' W 003°00'0 0.0
2015-Feb-25 00:31N 53°23' W 003°00'0 0.0
2015-Feb-24 23:25N 53°23' W 003°00'0 0.0
2015-Feb-24 22:31N 53°23' W 003°00'0 0.0
2015-Feb-24 21:31N 53°23' W 003°00'0 0.0
2015-Feb-24 20:31N 53°23' W 003°00'0 0.0
2015-Feb-24 19:31N 53°23' W 003°00'0 0.0
2015-Feb-24 18:31N 53°23' W 003°00'0 0.0
2015-Feb-24 17:31N 53°23' W 003°00'0 0.0
2015-Feb-24 16:30N 53°23' W 003°00'0 0.0
2015-Feb-24 15:24N 53°23' W 003°00'0 0.0
2015-Feb-24 14:24N 53°23' W 003°00'1 0.0
2015-Feb-23 14:06N 53°23' W 003°00'3 5.1
2015-Feb-23 13:33N 53°26' W 003°01'9 8.1
2015-Feb-23 12:29N 53°31' W 003°13'3 2.9
2015-Feb-23 11:33N 53°32' W 003°08'9 8.7
2015-Feb-23 10:33N 53°24' W 003°00'1 0.2
2015-Feb-23 02:29N 53°23' W 003°00'1 1.0
2015-Feb-23 01:34N 53°24' W 003°00'8 8.3
2015-Feb-23 00:33N 53°31' W 003°07'4 4.3
2015-Feb-22 23:33N 53°31' W 003°14'8 7.9
2015-Feb-22 22:33N 53°27' W 003°02'5 4.5
2015-Feb-22 21:28N 53°23' W 003°00'0 0.0
2015-Feb-22 20:28N 53°23' W 003°00'0 0.0
2015-Feb-22 19:28N 53°23' W 003°00'0 0.0
2015-Feb-22 18:28N 53°23' W 003°00'0 0.0
2015-Feb-22 17:28N 53°23' W 003°00'0 0.0
2015-Feb-22 16:28N 53°23' W 003°00'0 0.0
2015-Feb-22 15:22N 53°23' W 003°00'0 0.0
2015-Feb-22 14:28N 53°23' W 003°00'0 0.0
2015-Feb-22 13:22N 53°23' W 003°00'0 0.0
2015-Feb-22 12:28N 53°23' W 003°00'0 0.0
2015-Feb-22 11:28N 53°23' W 003°00'0 0.0
2015-Feb-22 10:28N 53°23' W 003°00'0 0.0
2015-Feb-22 09:28N 53°23' W 003°00'0 0.0
2015-Feb-22 08:28N 53°23' W 003°00'0 0.0
2015-Feb-22 07:28N 53°23' W 003°00'0 0.0
2015-Feb-22 06:28N 53°23' W 003°00'0 0.0
2015-Feb-22 05:28N 53°23' W 003°00'0 0.0
2015-Feb-22 04:16N 53°23' W 003°00'0 0.0
2015-Feb-22 03:34N 53°23' W 003°00'0 0.0
2015-Feb-22 02:33N 53°23' W 003°00'0 0.0
2015-Feb-22 01:33N 53°23' W 003°00'0 0.0
2015-Feb-22 00:33N 53°23' W 003°00'0 0.0
2015-Feb-21 23:33N 53°23' W 003°00'4 4.1
2015-Feb-21 22:33N 53°27' W 003°01'3 3.0
2015-Feb-21 21:33N 53°24' W 003°00'1 1.0
2015-Feb-21 20:29N 53°23' W 003°00'0 0.0
2015-Feb-21 19:29N 53°23' W 003°00'0 0.0
2015-Feb-21 18:29N 53°23' W 003°00'0 0.0
2015-Feb-21 17:29N 53°23' W 003°00'0 0.0
2015-Feb-21 16:29N 53°23' W 003°00'0 0.0
2015-Feb-21 15:29N 53°23' W 003°00'0 0.0
2015-Feb-21 14:29N 53°23' W 003°00'0 0.0
2015-Feb-21 13:17N 53°23' W 003°00'0 0.0
2015-Feb-21 12:29N 53°23' W 003°00'  

Dump ship's entire track history